Terminal Aerodrome Forecast
Issued by NWS Jackson, MS

Home | Current Version | Previous Version | Text Only | Print | Product List | Glossary On
Versions: 1 2 3 4 5 6 7 8 9 10 11 12 13 14 15
818
FTUS44 KJAN 210534
TAFHBG
TAF
KHBG 210534Z 2106/2206 00000KT P6SM FEW250
     FM210900 00000KT 5SM BR FEW250
     FM211300 05003KT P6SM FEW250
     FM211700 09004KT P6SM VCTS FEW050CB SCT250
     FM220100 16003KT P6SM BKN090=

USA.gov is the U.S. government's official web portal to all federal, state and local government web resources and services.